Time;durP1;ratioP1;P1;durP2;ratioP2;P2;SDS_P1;SDS_P2;PMS_P1;PMS_P2;Temp;Humidity;BMP_temperature;BMP_pressure;BME280_temperature;BME280_humidity;BME280_pressure;Samples;Min_cycle;Max_cycle;Signal;HPM_P1;HPM_P2
2021/04/16 00:00:40;;;;;;;11.02;7.90;;;;;;;8.58;85.97;98874.31;3467875;28;20081;-52
2021/04/16 00:02:21;;;;;;;13.55;7.90;;;;;;;8.60;85.78;98875.19;3465264;28;20045;-53
2021/04/16 00:04:04;;;;;;;11.70;8.40;;;;;;;8.62;86.23;98880.38;3466722;28;20049;-53
2021/04/16 00:05:46;;;;;;;11.10;7.60;;;;;;;8.62;85.95;98878.66;3456801;28;20054;-51
2021/04/16 00:07:27;;;;;;;12.00;7.75;;;;;;;8.64;85.95;98873.50;3459479;28;20436;-46
2021/04/16 00:09:09;;;;;;;11.90;7.78;;;;;;;8.63;86.42;98875.22;3455444;28;20072;-46
2021/04/16 00:10:54;;;;;;;13.10;8.27;;;;;;;8.63;86.23;98877.81;3463119;28;20072;-51
2021/04/16 00:12:35;;;;;;;9.85;6.72;;;;;;;8.62;86.18;98878.66;3468152;28;20053;-46
2021/04/16 00:14:17;;;;;;;12.00;7.57;;;;;;;8.62;86.12;98873.47;3464834;28;20081;-47
2021/04/16 00:15:59;;;;;;;10.13;7.45;;;;;;;8.62;86.23;98873.47;3466330;28;20053;-51
2021/04/16 00:17:40;;;;;;;10.18;7.20;;;;;;;8.61;85.99;98869.19;3467129;28;20427;-53
2021/04/16 00:19:23;;;;;;;12.68;7.78;;;;;;;8.59;85.89;98874.34;3464818;28;20506;-47
2021/04/16 00:21:05;;;;;;;10.30;6.93;;;;;;;8.57;86.26;98870.00;3468098;28;20057;-50
2021/04/16 00:22:46;;;;;;;11.05;7.60;;;;;;;8.56;86.30;98868.28;3464944;28;20049;-50
2021/04/16 00:24:28;;;;;;;12.05;7.22;;;;;;;8.54;86.30;98873.44;3467894;28;20049;-52
2021/04/16 00:26:11;;;;;;;10.35;6.90;;;;;;;8.54;86.25;98867.41;3466440;28;20071;-52
2021/04/16 00:27:53;;;;;;;10.02;6.47;;;;;;;8.51;86.25;98870.81;3467621;28;20049;-51
2021/04/16 00:29:35;;;;;;;11.10;7.35;;;;;;;8.49;86.47;98869.06;3470445;28;20045;-47
2021/04/16 00:31:19;;;;;;;11.57;8.00;;;;;;;8.44;86.86;98874.19;3467763;28;20144;-50
2021/04/16 00:33:01;;;;;;;9.77;5.80;;;;;;;8.39;86.60;98876.75;3470912;28;20502;-53
2021/04/16 00:34:42;;;;;;;14.45;7.95;;;;;;;8.35;87.23;98874.97;3467525;28;20064;-48
2021/04/16 00:36:24;;;;;;;8.10;6.07;;;;;;;8.30;87.15;98866.31;3468574;28;20045;-54
2021/04/16 00:38:06;;;;;;;9.25;6.30;;;;;;;8.29;87.08;98874.03;3468933;28;20056;-53
2021/04/16 00:39:48;;;;;;;9.32;6.40;;;;;;;8.26;87.55;98871.44;3466987;28;20046;-53
2021/04/16 00:41:30;;;;;;;7.63;5.38;;;;;;;8.23;87.50;98868.81;3469615;28;20053;-53
2021/04/16 00:43:13;;;;;;;11.75;6.35;;;;;;;8.19;86.96;98868.78;3467084;28;20053;-52
2021/04/16 00:44:54;;;;;;;11.18;6.88;;;;;;;8.18;87.57;98866.19;3470406;28;20053;-54
2021/04/16 00:46:42;;;;;;;8.18;5.43;;;;;;;8.15;87.34;98861.88;3467209;28;20050;-52
2021/04/16 00:48:28;;;;;;;9.35;6.00;;;;;;;8.14;87.35;98864.44;3468483;28;20103;-50
2021/04/16 00:50:15;;;;;;;7.95;5.50;;;;;;;8.10;87.72;98873.88;3459533;28;20061;-50
2021/04/16 00:52:00;;;;;;;9.95;6.47;;;;;;;8.07;87.68;98863.50;3461063;28;20041;-52
2021/04/16 00:53:41;;;;;;;11.57;6.85;;;;;;;8.08;88.21;98874.72;3470332;28;20077;-51
2021/04/16 00:55:23;;;;;;;12.18;7.05;;;;;;;8.06;88.38;98871.22;3467143;28;20057;-51
2021/04/16 00:57:08;;;;;;;11.02;6.13;;;;;;;8.06;88.26;98873.81;3470162;28;20085;-51
2021/04/16 00:58:49;;;;;;;10.23;6.38;;;;;;;8.05;88.27;98870.38;3467933;28;20049;-54
2021/04/16 01:00:31;;;;;;;8.85;5.90;;;;;;;8.07;88.19;98870.38;3466566;28;20073;-52
2021/04/16 01:02:12;;;;;;;10.07;6.50;;;;;;;8.07;88.31;98872.97;3469031;28;20064;-51
2021/04/16 01:03:54;;;;;;;11.60;6.18;;;;;;;8.08;88.54;98877.28;3466454;28;21229;-51
2021/04/16 01:05:35;;;;;;;8.70;5.45;;;;;;;8.07;88.23;98867.78;3456471;28;20146;-52
2021/04/16 01:07:18;;;;;;;9.55;6.32;;;;;;;8.06;88.40;98871.22;3461182;28;20084;-54
2021/04/16 01:09:00;;;;;;;9.68;6.68;;;;;;;8.03;88.24;98869.47;3457665;28;20053;-51
2021/04/16 01:10:42;;;;;;;9.10;5.97;;;;;;;8.02;88.75;98875.47;3468792;28;20099;-46
2021/04/16 01:12:23;;;;;;;10.18;6.53;;;;;;;8.01;88.77;98873.78;3467112;28;20081;-53
2021/04/16 01:14:07;;;;;;;11.55;7.13;;;;;;;7.98;88.62;98872.00;3477672;28;20076;-52
2021/04/16 01:15:53;;;;;;;10.25;7.00;;;;;;;7.96;88.75;98875.44;3471965;28;20069;-47
2021/04/16 01:17:35;;;;;;;12.32;7.35;;;;;;;7.93;88.72;98873.66;3469706;28;20131;-47
2021/04/16 01:19:26;;;;;;;14.05;7.50;;;;;;;7.92;88.93;98886.56;3467169;28;20101;-46
2021/04/16 01:21:11;;;;;;;11.80;7.80;;;;;;;7.91;89.30;98875.38;3468315;28;20053;-47
2021/04/16 01:23:01;;;;;;;16.88;8.55;;;;;;;7.91;89.09;98877.94;3469744;28;20522;-50
2021/04/16 01:24:43;;;;;;;14.05;8.13;;;;;;;7.91;89.12;98879.69;3466802;28;20128;-51
2021/04/16 01:26:27;;;;;;;13.88;8.77;;;;;;;7.92;89.26;98881.38;3470492;28;20064;-53
2021/04/16 01:28:09;;;;;;;14.10;8.38;;;;;;;7.92;89.24;98871.94;3466597;28;20045;-50
2021/04/16 01:29:51;;;;;;;13.25;8.20;;;;;;;7.94;89.01;98879.72;3468487;28;20115;-53
2021/04/16 01:31:33;;;;;;;12.02;7.15;;;;;;;7.93;89.32;98875.38;3459222;28;20058;-50
2021/04/16 01:33:14;;;;;;;12.48;7.72;;;;;;;7.92;89.29;98874.53;3459076;28;20056;-54
2021/04/16 01:34:56;;;;;;;11.75;7.25;;;;;;;7.92;89.25;98871.06;3469904;28;20049;-46
2021/04/16 01:36:37;;;;;;;12.00;7.93;;;;;;;7.90;89.43;98868.50;3466640;28;20041;-51
2021/04/16 01:38:18;;;;;;;12.25;7.53;;;;;;;7.89;89.36;98871.06;3469091;28;20045;-53
2021/04/16 01:40:00;;;;;;;12.00;7.22;;;;;;;7.87;89.15;98865.88;3465293;28;20163;-51
2021/04/16 01:41:42;;;;;;;13.20;7.50;;;;;;;7.87;89.38;98865.00;3469027;28;20077;-47
2021/04/16 01:43:27;;;;;;;9.93;7.03;;;;;;;7.84;88.97;98864.09;3467809;28;20563;-46
2021/04/16 01:45:16;;;;;;;10.98;6.47;;;;;;;7.84;89.04;98864.09;3466801;28;20145;-46
2021/04/16 01:47:01;;;;;;;12.75;6.88;;;;;;;7.85;88.71;98867.56;3456429;28;20084;-47
2021/04/16 01:48:45;;;;;;;12.63;6.90;;;;;;;7.84;88.62;98866.69;3464188;28;20148;-46
2021/04/16 01:50:28;;;;;;;10.05;6.47;;;;;;;7.83;88.70;98864.97;3469485;28;20426;-46
2021/04/16 01:52:12;;;;;;;13.07;7.68;;;;;;;7.83;88.53;98862.38;3466747;28;20506;-47
2021/04/16 01:54:08;;;;;;;10.15;6.95;;;;;;;7.83;88.47;98859.78;3467346;28;20525;-46
2021/04/16 01:55:52;;;;;;;12.25;6.93;;;;;;;7.86;88.63;98860.69;3456130;28;20050;-46
2021/04/16 01:57:35;;;;;;;8.95;5.85;;;;;;;7.87;88.69;98862.44;3462996;28;20056;-46
2021/04/16 01:59:21;;;;;;;11.85;6.93;;;;;;;7.87;88.42;98865.00;3469333;28;20054;-46
2021/04/16 02:01:05;;;;;;;10.93;6.25;;;;;;;7.85;88.52;98854.66;3466688;28;20068;-46
2021/04/16 02:02:46;;;;;;;10.60;6.22;;;;;;;7.86;88.13;98856.38;3466339;28;20064;-46
2021/04/16 02:04:28;;;;;;;11.93;6.50;;;;;;;7.84;88.37;98856.34;3469407;28;20138;-47
2021/04/16 02:06:09;;;;;;;11.20;6.18;;;;;;;7.83;88.03;98858.94;3466205;28;20423;-51
2021/04/16 02:07:52;;;;;;;7.80;5.15;;;;;;;7.81;87.98;98858.03;3469766;28;20056;-51
2021/04/16 02:09:36;;;;;;;9.63;5.70;;;;;;;7.81;87.90;98863.19;3466299;28;20052;-52
2021/04/16 02:11:18;;;;;;;8.00;5.45;;;;;;;7.80;88.09;98856.31;3468991;28;20439;-51
2021/04/16 02:12:59;;;;;;;9.70;6.05;;;;;;;7.81;88.28;98863.19;3465520;28;20076;-46
2021/04/16 02:14:41;;;;;;;12.77;6.38;;;;;;;7.80;88.08;98857.19;3466727;28;20053;-51
2021/04/16 02:16:22;;;;;;;9.00;5.70;;;;;;;7.82;88.25;98863.22;3469751;28;20046;-46
2021/04/16 02:18:04;;;;;;;11.80;6.22;;;;;;;7.84;88.18;98864.09;3465998;28;20049;-46
2021/04/16 02:19:46;;;;;;;7.85;4.95;;;;;;;7.86;87.91;98864.13;3469119;28;20461;-46
2021/04/16 02:21:28;;;;;;;11.10;5.88;;;;;;;7.87;87.81;98859.84;3466410;28;20054;-46
2021/04/16 02:23:09;;;;;;;7.53;5.47;;;;;;;7.87;87.98;98855.53;3467869;28;20068;-46
2021/04/16 02:24:50;;;;;;;9.43;5.65;;;;;;;7.87;87.61;98858.13;3459055;28;20054;-52
2021/04/16 02:26:33;;;;;;;7.47;5.15;;;;;;;7.88;87.64;98861.56;3459249;28;20502;-51
2021/04/16 02:28:15;;;;;;;7.88;5.15;;;;;;;7.87;87.19;98865.00;3469583;28;20067;-51
2021/04/16 02:29:57;;;;;;;8.93;4.43;;;;;;;7.85;87.14;98865.00;3463340;28;20080;-52
2021/04/16 02:31:42;;;;;;;7.75;5.20;;;;;;;7.82;87.40;98860.63;3455758;28;20081;-50
2021/04/16 02:33:24;;;;;;;5.70;3.97;;;;;;;7.82;87.12;98859.78;3466321;28;20218;-51
2021/04/16 02:35:07;;;;;;;6.80;4.13;;;;;;;7.81;87.41;98865.78;3467072;28;20069;-50
2021/04/16 02:36:51;;;;;;;6.55;4.82;;;;;;;7.81;87.30;98860.63;3467134;28;20054;-50
2021/04/16 02:38:32;;;;;;;6.32;3.88;;;;;;;7.81;87.64;98860.63;3465913;28;20546;-51
2021/04/16 02:40:17;;;;;;;6.03;4.47;;;;;;;7.80;87.73;98859.75;3469316;28;20057;-51
2021/04/16 02:42:00;;;;;;;9.35;5.05;;;;;;;7.79;87.19;98852.00;3465650;28;20422;-50
2021/04/16 02:43:41;;;;;;;6.07;4.20;;;;;;;7.78;87.62;98855.44;3468300;28;20057;-50
2021/04/16 02:45:25;;;;;;;7.10;5.28;;;;;;;7.77;87.42;98862.28;3467124;28;20057;-50
2021/04/16 02:47:07;;;;;;;8.45;5.25;;;;;;;7.77;87.68;98858.84;3465866;28;20502;-50
2021/04/16 02:48:48;;;;;;;7.95;5.38;;;;;;;7.76;88.12;98863.16;3467657;28;20070;-50
2021/04/16 02:50:31;;;;;;;10.52;5.15;;;;;;;7.76;87.93;98860.59;3465501;28;20420;-50
2021/04/16 02:52:12;;;;;;;9.23;5.25;;;;;;;7.77;87.80;98853.69;3469261;28;20092;-51
2021/04/16 02:53:54;;;;;;;10.07;5.53;;;;;;;7.78;87.98;98860.59;3465739;28;20052;-50
2021/04/16 02:55:36;;;;;;;8.20;5.57;;;;;;;7.78;88.19;98863.19;3467673;28;20100;-52
2021/04/16 02:57:17;;;;;;;9.57;5.45;;;;;;;7.76;87.88;98860.59;3467101;28;20107;-52
2021/04/16 02:58:59;;;;;;;7.90;5.72;;;;;;;7.76;88.08;98859.69;3465953;28;20061;-53
2021/04/16 03:00:40;;;;;;;9.23;5.45;;;;;;;7.73;88.01;98857.94;3468114;28;20057;-51
2021/04/16 03:02:22;;;;;;;8.10;5.75;;;;;;;7.73;88.00;98851.94;3465685;28;20045;-50
2021/04/16 03:04:04;;;;;;;8.40;5.35;;;;;;;7.73;88.36;98862.25;3468955;28;20503;-51
2021/04/16 03:05:46;;;;;;;10.50;6.18;;;;;;;7.74;88.35;98863.97;3465657;28;20083;-51
2021/04/16 03:07:27;;;;;;;7.88;5.45;;;;;;;7.73;88.34;98862.25;3467612;28;20049;-51
2021/04/16 03:09:09;;;;;;;10.65;5.75;;;;;;;7.73;88.27;98857.09;3466911;28;20052;-50
2021/04/16 03:10:50;;;;;;;7.70;5.78;;;;;;;7.74;88.41;98856.22;3467005;28;20168;-51
2021/04/16 03:12:32;;;;;;;8.02;5.78;;;;;;;7.76;88.51;98859.69;3456374;28;20054;-50
2021/04/16 03:14:14;;;;;;;7.07;5.70;;;;;;;7.77;88.45;98861.44;3460717;28;20072;-47
2021/04/16 03:15:55;;;;;;;7.35;5.10;;;;;;;7.78;88.32;98863.19;3468779;28;20060;-45
2021/04/16 03:17:37;;;;;;;8.13;5.55;;;;;;;7.79;88.21;98860.63;3465234;28;20490;-46
2021/04/16 03:19:18;;;;;;;8.60;5.45;;;;;;;7.80;88.21;98864.06;3467917;28;20049;-46
2021/04/16 03:21:00;;;;;;;8.43;5.60;;;;;;;7.79;88.11;98858.03;3466790;28;20050;-47
2021/04/16 03:22:41;;;;;;;10.43;6.00;;;;;;;7.80;88.22;98858.91;3465734;28;20081;-46
2021/04/16 03:24:23;;;;;;;13.68;6.13;;;;;;;7.79;88.37;98854.56;3468565;28;20510;-46
2021/04/16 03:26:04;;;;;;;9.77;5.85;;;;;;;7.79;88.49;98860.63;3465532;28;20084;-47
2021/04/16 03:27:46;;;;;;;9.02;5.32;;;;;;;7.81;88.14;98861.50;3468687;28;20434;-47
2021/04/16 03:29:28;;;;;;;7.32;4.93;;;;;;;7.80;88.27;98854.59;3465232;28;20136;-46
2021/04/16 03:31:09;;;;;;;10.23;6.32;;;;;;;7.81;88.00;98860.63;3467901;28;20057;-46
2021/04/16 03:32:51;;;;;;;6.75;5.00;;;;;;;7.81;88.25;98861.50;3466831;28;20136;-46
2021/04/16 03:34:33;;;;;;;8.00;4.72;;;;;;;7.82;87.89;98852.88;3465584;28;20081;-46
2021/04/16 03:36:15;;;;;;;6.60;4.65;;;;;;;7.86;87.73;98858.09;3468542;28;20083;-46
2021/04/16 03:37:57;;;;;;;6.50;4.70;;;;;;;7.86;87.34;98858.94;3465452;28;20049;-50
2021/04/16 03:39:38;;;;;;;7.53;5.38;;;;;;;7.86;87.45;98852.94;3468583;28;20057;-51
2021/04/16 03:41:20;;;;;;;8.82;4.78;;;;;;;7.86;87.54;98861.53;3465141;28;20060;-50
2021/04/16 03:43:03;;;;;;;9.95;5.63;;;;;;;7.85;87.51;98865.00;3467570;28;20053;-53
2021/04/16 03:44:44;;;;;;;6.65;4.45;;;;;;;7.82;87.57;98858.06;3466607;28;20053;-53
2021/04/16 03:46:25;;;;;;;8.38;6.03;;;;;;;7.83;87.62;98869.28;3463907;28;20167;-53
2021/04/16 03:48:08;;;;;;;6.97;5.25;;;;;;;7.83;87.52;98864.97;3468862;28;20140;-46
2021/04/16 03:49:50;;;;;;;8.63;5.00;;;;;;;7.83;87.60;98861.53;3464129;28;20153;-46
2021/04/16 03:51:45;;;;;;;8.60;5.38;;;;;;;7.83;87.71;98864.09;3454942;28;20085;-46
2021/04/16 03:53:27;;;;;;;9.13;5.05;;;;;;;7.82;87.49;98867.53;3464866;28;20526;-48
2021/04/16 03:55:11;;;;;;;6.93;4.80;;;;;;;7.83;87.49;98864.09;3464604;28;20530;-46
2021/04/16 03:56:53;;;;;;;7.60;5.32;;;;;;;7.85;87.36;98870.16;3468410;28;20061;-46
2021/04/16 03:58:35;;;;;;;8.20;5.50;;;;;;;7.87;87.46;98876.19;3465072;28;20049;-46
2021/04/16 04:00:24;;;;;;;7.93;5.35;;;;;;;7.87;87.64;98867.59;3468566;28;20053;-47
2021/04/16 04:02:06;;;;;;;7.53;5.28;;;;;;;7.88;87.89;98871.88;3467221;28;20427;-46
2021/04/16 04:03:47;;;;;;;8.82;5.30;;;;;;;7.88;87.47;98877.91;3468912;28;20436;-46
2021/04/16 04:05:30;;;;;;;7.70;5.68;;;;;;;7.86;87.40;98871.88;3469190;28;20054;-46
2021/04/16 04:07:11;;;;;;;8.05;5.97;;;;;;;7.85;87.51;98872.72;3467480;28;20053;-46
2021/04/16 04:08:52;;;;;;;8.57;5.90;;;;;;;7.82;87.29;98877.84;3470974;28;20052;-46
2021/04/16 04:10:36;;;;;;;7.93;5.35;;;;;;;7.80;87.71;98874.38;3465966;28;20522;-46
2021/04/16 04:12:17;;;;;;;;;;;;;;;7.80;87.47;98876.97;3470869;28;20049;-46
2021/04/16 04:14:01;;;;;;;8.32;5.65;;;;;;;7.80;87.95;98883.00;3466379;28;19924;-46
2021/04/16 04:15:42;;;;;;;7.13;5.15;;;;;;;7.81;87.95;98877.00;3466885;28;20220;-46
2021/04/16 04:17:40;;;;;;;8.68;4.82;;;;;;;7.82;87.72;98872.69;3470749;28;20045;-46
2021/04/16 04:19:24;;;;;;;7.22;4.40;;;;;;;7.85;87.23;98880.47;3467290;28;20552;-46
2021/04/16 04:21:06;;;;;;;7.80;4.68;;;;;;;7.85;86.82;98875.31;3470687;28;20076;-46
2021/04/16 04:22:47;;;;;;;8.55;5.43;;;;;;;7.86;86.80;98882.19;3466807;28;20045;-50
2021/04/16 04:24:29;;;;;;;6.90;5.10;;;;;;;7.87;86.55;98881.34;3468667;28;20502;-50
2021/04/16 04:26:10;;;;;;;6.97;4.43;;;;;;;7.86;85.96;98874.44;3469098;28;20056;-53
2021/04/16 04:27:53;;;;;;;9.18;4.60;;;;;;;7.87;86.00;98877.91;3466950;28;20042;-46
2021/04/16 04:29:35;;;;;;;5.78;4.13;;;;;;;7.86;86.00;98876.16;3456858;28;20065;-46
2021/04/16 04:31:16;;;;;;;7.68;4.47;;;;;;;7.83;85.92;98877.00;3466374;28;20053;-47
2021/04/16 04:32:58;;;;;;;6.55;4.78;;;;;;;7.81;86.19;98879.56;3469109;28;20497;-46
2021/04/16 04:34:40;;;;;;;7.47;5.10;;;;;;;7.82;86.02;98880.44;3468646;28;20049;-46
2021/04/16 04:36:22;;;;;;;6.43;4.07;;;;;;;7.82;85.93;98878.72;3467441;28;20096;-47
2021/04/16 04:38:05;;;;;;;6.20;4.63;;;;;;;7.82;85.79;98883.88;3469708;28;20053;-46
2021/04/16 04:39:46;;;;;;;7.57;4.28;;;;;;;7.83;85.55;98885.63;3468124;28;20053;-46
2021/04/16 04:41:27;;;;;;;5.72;4.18;;;;;;;7.83;85.72;98879.59;3470333;28;20488;-46
2021/04/16 04:43:10;;;;;;;6.30;4.38;;;;;;;7.84;85.51;98882.16;3467378;28;20107;-46
2021/04/16 04:44:52;;;;;;;9.20;5.15;;;;;;;7.83;85.48;98877.88;3469196;28;20056;-46
2021/04/16 04:46:33;;;;;;;15.30;4.82;;;;;;;7.84;85.63;98882.16;3467758;28;20515;-46
2021/04/16 04:48:15;;;;;;;7.80;5.05;;;;;;;7.83;85.58;98880.47;3467192;28;20053;-46
2021/04/16 04:49:58;;;;;;;10.27;5.20;;;;;;;7.83;85.40;98882.19;3470796;28;20140;-46
2021/04/16 04:51:39;;;;;;;8.52;5.40;;;;;;;7.83;85.75;98877.88;3466947;28;20053;-45
2021/04/16 04:53:21;;;;;;;7.55;5.40;;;;;;;7.84;85.90;98879.59;3470624;28;20084;-46
2021/04/16 04:55:06;;;;;;;9.07;5.35;;;;;;;7.81;85.81;98874.41;3466916;28;20060;-47
2021/04/16 04:56:47;;;;;;;7.78;4.93;;;;;;;7.81;85.82;98870.94;3468368;28;20057;-47
2021/04/16 04:58:28;;;;;;;6.13;4.55;;;;;;;7.82;86.00;98872.69;3468966;28;20050;-46
2021/04/16 05:00:15;;;;;;;7.50;4.75;;;;;;;7.83;85.96;98877.88;3467022;28;20545;-46
2021/04/16 05:01:56;;;;;;;7.68;4.63;;;;;;;7.88;86.17;98877.06;3469886;28;20049;-45
2021/04/16 05:03:37;;;;;;;10.45;5.45;;;;;;;7.90;86.17;98873.66;3466780;28;20564;-46
2021/04/16 05:05:22;;;;;;;8.05;4.93;;;;;;;7.94;86.06;98877.13;3470169;28;20418;-46
2021/04/16 05:07:03;;;;;;;8.57;5.60;;;;;;;7.97;85.78;98875.44;3466179;28;20493;-46
2021/04/16 05:08:44;;;;;;;9.13;5.40;;;;;;;8.01;85.75;98871.19;3468292;28;20509;-46
2021/04/16 05:10:26;;;;;;;7.93;5.43;;;;;;;8.03;85.68;98870.34;3469334;28;20057;-51
2021/04/16 05:12:09;;;;;;;7.05;4.93;;;;;;;8.06;85.18;98877.28;3466744;28;20041;-50
2021/04/16 05:13:52;;;;;;;7.20;5.28;;;;;;;8.08;84.64;98874.72;3469146;28;20072;-50
2021/04/16 05:15:34;;;;;;;7.63;4.78;;;;;;;8.09;84.58;98872.13;3466899;28;20053;-46
2021/04/16 05:17:15;;;;;;;5.97;4.63;;;;;;;8.10;84.96;98875.59;3469422;28;20049;-46
2021/04/16 05:18:59;;;;;;;7.25;4.85;;;;;;;8.09;85.01;98874.69;3466306;28;20041;-45
2021/04/16 05:20:40;;;;;;;7.50;5.38;;;;;;;8.11;85.13;98872.13;3467794;28;20092;-45
2021/04/16 05:22:22;;;;;;;9.27;4.88;;;;;;;8.12;84.68;98868.72;3469319;28;20572;-46
2021/04/16 05:24:04;;;;;;;7.03;4.97;;;;;;;8.12;84.83;98869.56;3466599;28;20061;-45
2021/04/16 05:25:46;;;;;;;9.48;4.90;;;;;;;8.12;84.75;98867.00;3470048;28;20107;-45
2021/04/16 05:27:29;;;;;;;9.00;4.97;;;;;;;8.09;84.85;98873.84;3466523;28;20431;-47
2021/04/16 05:29:10;;;;;;;8.13;5.32;;;;;;;8.05;84.91;98872.94;3469757;28;20096;-52
2021/04/16 05:30:52;;;;;;;9.55;6.10;;;;;;;8.05;85.03;98877.25;3467311;28;20107;-46
2021/04/16 05:32:33;;;;;;;6.35;5.15;;;;;;;8.00;85.14;98878.03;3468144;28;20053;-52
2021/04/16 05:34:14;;;;;;;9.48;5.22;;;;;;;7.99;85.41;98871.16;3459140;28;20046;-49
2021/04/16 05:35:59;;;;;;;6.00;4.50;;;;;;;7.99;85.19;98875.47;3459056;28;20072;-51
2021/04/16 05:37:42;;;;;;;8.50;5.88;;;;;;;7.97;85.64;98880.63;3470052;28;20084;-51
2021/04/16 05:39:24;;;;;;;8.27;5.35;;;;;;;7.95;85.35;98881.44;3466617;28;20065;-51
2021/04/16 05:41:05;;;;;;;7.80;5.38;;;;;;;7.92;85.62;98876.22;3470020;28;20057;-46
2021/04/16 05:42:50;;;;;;;11.35;6.55;;;;;;;7.90;85.97;98871.06;3467637;28;20054;-44
2021/04/16 05:44:31;;;;;;;11.32;6.43;;;;;;;7.89;86.11;98873.63;3467307;28;20042;-46
2021/04/16 05:46:13;;;;;;;11.35;6.93;;;;;;;7.90;86.69;98871.06;3469181;28;20053;-46
2021/04/16 05:47:55;;;;;;;9.68;6.20;;;;;;;7.92;86.44;98877.13;3466778;28;20049;-46
2021/04/16 05:49:36;;;;;;;12.73;7.00;;;;;;;7.94;86.17;98869.38;3469883;28;20053;-47
2021/04/16 05:51:18;;;;;;;9.90;7.25;;;;;;;7.89;85.99;98879.66;3465093;28;20057;-52
2021/04/16 05:53:02;;;;;;;14.07;7.45;;;;;;;7.84;85.85;98877.00;3469390;28;20083;-46
2021/04/16 05:54:43;;;;;;;12.05;8.13;;;;;;;7.80;86.19;98880.41;3467742;28;20515;-50
2021/04/16 05:56:26;;;;;;;11.98;7.63;;;;;;;7.77;86.12;98876.94;3467593;28;20656;-51
2021/04/16 05:58:08;;;;;;;11.88;6.93;;;;;;;7.74;86.14;98872.59;3469236;28;20041;-51
2021/04/16 05:59:49;;;;;;;13.60;8.50;;;;;;;7.74;86.47;98874.31;3465030;28;20053;-50
2021/04/16 06:01:32;;;;;;;16.50;7.97;;;;;;;7.73;86.99;98872.59;3469768;28;20073;-50
2021/04/16 06:03:17;;;;;;;17.47;11.03;;;;;;;7.76;87.07;98878.66;3466402;28;20058;-51
2021/04/16 06:05:00;;;;;;;12.98;7.50;;;;;;;7.76;86.55;98875.19;3467855;28;20283;-51
2021/04/16 06:06:41;;;;;;;17.20;8.52;;;;;;;7.75;86.47;98870.88;3467487;28;20103;-50
2021/04/16 06:08:22;;;;;;;15.45;8.10;;;;;;;7.75;86.59;98878.63;3467306;28;20073;-53
2021/04/16 06:10:07;;;;;;;11.68;7.53;;;;;;;7.76;86.57;98880.34;3469165;28;20053;-49
2021/04/16 06:11:49;;;;;;;9.13;6.53;;;;;;;7.75;86.30;98882.06;3465904;28;20423;-50
2021/04/16 06:13:31;;;;;;;13.05;8.38;;;;;;;7.74;86.36;98879.47;3468581;28;20072;-50
2021/04/16 06:15:16;;;;;;;14.70;7.50;;;;;;;7.73;85.78;98877.75;3466162;28;20064;-50
2021/04/16 06:16:58;;;;;;;12.13;7.47;;;;;;;7.72;86.17;98879.44;3467418;28;20495;-50
2021/04/16 06:18:39;;;;;;;14.05;8.10;;;;;;;7.71;86.14;98880.31;3468021;28;20081;-49
2021/04/16 06:20:22;;;;;;;14.13;8.05;;;;;;;7.71;85.93;98879.44;3464784;28;20450;-50
2021/04/16 06:22:04;;;;;;;12.52;8.27;;;;;;;7.71;86.47;98882.88;3455985;28;20085;-52
2021/04/16 06:23:45;;;;;;;16.58;6.82;;;;;;;7.71;86.17;98882.03;3462182;28;20438;-50
2021/04/16 06:25:30;;;;;;;16.42;9.15;;;;;;;7.71;86.56;98885.47;3469174;28;20104;-52
2021/04/16 06:27:12;;;;;;;12.45;8.45;;;;;;;7.73;86.80;98886.34;3466807;28;20139;-52
2021/04/16 06:28:54;;;;;;;14.30;7.13;;;;;;;7.78;86.87;98889.84;3467405;28;20045;-51
2021/04/16 06:30:35;;;;;;;12.50;7.85;;;;;;;7.81;86.73;98889.91;3468289;28;20180;-46
2021/04/16 06:32:21;;;;;;;12.75;7.90;;;;;;;7.87;86.12;98893.41;3464769;28;20077;-46
2021/04/16 06:34:05;;;;;;;9.82;5.97;;;;;;;7.90;85.91;98889.16;3469636;28;20137;-45
2021/04/16 06:35:50;;;;;;;11.43;7.30;;;;;;;7.93;85.77;98898.63;3465639;28;20041;-45
2021/04/16 06:37:32;;;;;;;9.93;6.82;;;;;;;7.94;85.53;98897.78;3467206;28;20049;-50
2021/04/16 06:39:13;;;;;;;12.77;5.97;;;;;;;7.95;85.68;98891.75;3467241;28;20408;-49
2021/04/16 06:40:56;;;;;;;10.30;7.10;;;;;;;7.96;85.25;98893.50;3466091;28;20053;-50
2021/04/16 06:42:37;;;;;;;17.35;8.25;;;;;;;7.98;85.60;98891.81;3469231;28;20053;-46
2021/04/16 06:44:22;;;;;;;18.90;7.28;;;;;;;7.99;85.54;98896.13;3465743;28;20075;-46
2021/04/16 06:46:04;;;;;;;12.95;7.30;;;;;;;8.00;85.31;98887.53;3469442;28;20045;-53
2021/04/16 06:47:52;;;;;;;10.02;6.07;;;;;;;7.98;84.87;98902.13;3465666;28;20111;-50
2021/04/16 06:49:37;;;;;;;11.63;7.00;;;;;;;7.97;85.33;98895.22;3467232;28;20052;-49
2021/04/16 06:51:21;;;;;;;13.07;8.38;;;;;;;7.96;85.52;98894.38;3468886;28;20503;-53
2021/04/16 06:53:09;;;;;;;14.57;6.88;;;;;;;7.98;85.19;98902.13;3466055;28;20589;-50
2021/04/16 06:54:56;;;;;;;11.05;6.40;;;;;;;7.97;84.99;98901.28;3468998;28;20080;-53
2021/04/16 06:56:41;;;;;;;8.68;5.88;;;;;;;7.96;85.01;98907.28;3465915;28;20046;-45
2021/04/16 06:58:28;;;;;;;10.40;7.00;;;;;;;7.95;85.05;98905.56;3467515;28;20081;-45
2021/04/16 07:00:32;;;;;;;12.77;7.22;;;;;;;7.95;85.23;98905.56;3467175;28;20053;-45
2021/04/16 07:02:17;;;;;;;8.77;5.18;;;;;;;7.95;84.81;98908.16;3465417;28;20477;-46
2021/04/16 07:04:15;;;;;;;12.23;6.82;;;;;;;7.94;84.94;98908.13;3468931;28;20562;-46
2021/04/16 07:06:00;;;;;;;10.52;6.97;;;;;;;7.93;85.05;98909.81;3466685;28;20053;-45
2021/04/16 07:07:45;;;;;;;14.13;6.53;;;;;;;7.92;84.92;98910.69;3464573;28;20045;-49
2021/04/16 07:09:30;;;;;;;14.10;7.35;;;;;;;7.94;85.30;98910.72;3468908;28;20056;-49
2021/04/16 07:11:24;;;;;;;14.60;8.15;;;;;;;7.95;85.21;98905.56;3463299;28;20053;-50
2021/04/16 07:13:07;;;;;;;10.65;7.50;;;;;;;7.97;85.05;98910.72;3454950;28;20078;-53
2021/04/16 07:14:51;;;;;;;15.02;8.45;;;;;;;7.99;85.14;98912.50;3466599;28;20049;-49
2021/04/16 07:16:34;;;;;;;12.30;7.88;;;;;;;8.01;84.91;98912.50;3465524;28;20056;-51
2021/04/16 07:18:24;;;;;;;10.68;6.18;;;;;;;7.99;84.43;98912.50;3467867;28;20052;-50
2021/04/16 07:20:08;;;;;;;12.25;7.05;;;;;;;7.97;84.74;98911.63;3465427;28;20072;-49
2021/04/16 07:21:55;;;;;;;;;;;;;;;7.95;84.27;98915.91;3469137;28;20050;-52
2021/04/16 07:23:46;;;;;;;9.93;5.50;;;;;;;7.93;84.44;98911.53;3466271;28;19931;-46
2021/04/16 07:26:10;;;;;;;10.32;6.45;;;;;;;7.89;84.45;98912.38;3464069;28;20080;-44
2021/04/16 07:27:53;;;;;;;12.30;6.45;;;;;;;7.87;84.36;98909.75;3467469;28;20538;-45
2021/04/16 07:29:41;;;;;;;11.32;6.50;;;;;;;7.87;84.66;98906.31;3465715;28;20464;-45
2021/04/16 07:31:42;;;;;;;10.80;5.40;;;;;;;7.87;84.50;98912.34;3465413;28;20042;-46
2021/04/16 07:33:31;;;;;;;7.20;5.03;;;;;;;7.88;84.58;98911.47;3455578;28;20124;-45
2021/04/16 07:35:22;;;;;;;7.88;5.43;;;;;;;7.90;84.52;98919.25;3464000;28;20057;-45
2021/04/16 07:37:11;;;;;;;8.15;5.50;;;;;;;7.94;84.48;98910.72;3466089;28;20517;-48
2021/04/16 07:39:20;;;;;;;9.48;6.03;;;;;;;7.94;84.29;98916.72;3468603;28;20544;-47
2021/04/16 07:41:17;;;;;;;5.65;3.90;;;;;;;7.98;84.26;98915.06;3465101;28;20045;-45
2021/04/16 07:42:59;;;;;;;8.07;5.90;;;;;;;8.01;84.41;98915.94;3466804;28;20084;-45
2021/04/16 07:44:55;;;;;;;8.75;5.68;;;;;;;8.03;84.50;98918.56;3467128;28;20050;-45
2021/04/16 07:46:40;;;;;;;10.77;6.82;;;;;;;8.07;84.47;98922.91;3465460;28;20056;-50
2021/04/16 07:48:32;;;;;;;8.45;4.95;;;;;;;8.10;84.11;98922.09;3468808;28;20057;-45
2021/04/16 07:50:28;;;;;;;8.43;5.15;;;;;;;8.11;83.74;98919.53;3465354;28;20118;-47
2021/04/16 07:52:23;;;;;;;7.82;5.00;;;;;;;8.12;83.76;98920.38;3464146;28;20107;-47
2021/04/16 07:54:14;;;;;;;8.73;5.35;;;;;;;8.14;83.75;98924.69;3455265;28;20049;-47
2021/04/16 07:56:13;;;;;;;8.68;5.13;;;;;;;8.17;83.72;98929.91;3462289;28;20045;-46
2021/04/16 07:58:06;;;;;;;7.93;5.18;;;;;;;8.24;83.45;98928.28;3465958;28;20546;-45
2021/04/16 07:59:57;;;;;;;10.17;5.10;;;;;;;8.29;83.34;98929.19;3467385;28;20060;-45
2021/04/16 08:01:41;;;;;;;8.32;4.07;;;;;;;8.32;82.72;98926.63;3464987;28;20585;-45
2021/04/16 08:03:24;;;;;;;5.90;4.45;;;;;;;8.33;82.71;98925.78;3468145;28;20077;-46
2021/04/16 08:05:27;;;;;;;10.50;5.35;;;;;;;8.37;82.31;98924.94;3465405;28;20532;-45
2021/04/16 08:07:17;;;;;;;11.10;5.40;;;;;;;8.44;82.30;98927.59;3465426;28;20054;-46
2021/04/16 08:08:59;;;;;;;8.27;5.35;;;;;;;8.49;82.34;98923.34;3454805;28;20077;-45
2021/04/16 08:10:41;;;;;;;9.13;5.47;;;;;;;8.53;81.77;98923.38;3462688;28;20048;-46
2021/04/16 08:12:25;;;;;;;6.43;4.45;;;;;;;8.54;82.13;98917.38;3468215;28;20530;-49